createdAt,value
2019-05-17T09:13:00.032Z,23.8331
2019-05-17T09:13:12.415Z,23.9586
2019-05-17T09:13:22.883Z,24.0574
2019-05-17T09:13:31.284Z,24.8531
2019-05-17T09:13:40.084Z,24.9920
2019-05-17T09:13:58.317Z,24.9359
2019-05-17T09:14:10.468Z,24.6262
2019-05-17T09:14:21.359Z,24.5380
2019-05-17T09:14:29.918Z,24.5113
2019-05-17T09:14:40.091Z,24.8238
2019-05-17T09:14:49.612Z,24.7810
2019-05-17T09:15:00.258Z,25.2483
2019-05-17T09:15:10.074Z,24.8798
2019-05-17T09:15:20.329Z,24.7677
2019-05-17T09:15:29.670Z,24.7116
2019-05-17T09:15:39.941Z,24.5834
2019-05-17T09:15:49.440Z,24.4980
2019-05-17T09:16:00.146Z,24.4820
2019-05-17T09:16:10.690Z,24.4553
2019-05-17T09:16:19.712Z,24.4820
2019-05-17T09:16:30.574Z,24.4419
2019-05-17T09:16:40.087Z,24.5247
2019-05-17T09:16:50.441Z,24.4553
2019-05-17T09:17:00.430Z,24.3992
2019-05-17T09:17:10.281Z,24.3271
2019-05-17T09:17:19.403Z,24.2710
2019-05-17T09:17:29.913Z,24.3565
2019-05-17T09:17:39.597Z,24.3004
2019-05-17T09:17:49.855Z,24.3137
2019-05-17T09:18:00.281Z,24.2844
2019-05-17T09:18:09.913Z,24.2710
2019-05-17T09:18:20.656Z,24.2577
2019-05-17T09:18:30.163Z,24.2577
2019-05-17T09:18:39.448Z,24.3004
2019-05-17T09:18:50.031Z,24.3271
2019-05-17T09:19:00.565Z,24.3431
2019-05-17T09:19:10.100Z,24.3271
2019-05-17T09:19:19.416Z,24.3137
2019-05-17T09:19:29.897Z,24.2710
2019-05-17T09:19:39.474Z,24.2443
2019-05-17T09:19:50.507Z,24.2149
2019-05-17T09:20:00.722Z,24.1722
2019-05-17T09:20:10.697Z,24.1588
2019-05-17T09:20:20.396Z,24.1588
2019-05-17T09:20:29.631Z,25.2911
2019-05-17T09:20:40.241Z,24.9226
2019-05-17T09:20:49.498Z,24.8798
2019-05-17T09:21:00.068Z,24.8531
2019-05-17T09:21:09.697Z,27.3178
2019-05-17T09:21:18.256Z,28.9601
2019-05-17T09:21:26.680Z,30.0816
2019-05-17T09:21:35.087Z,31.1151
2019-05-17T09:21:43.503Z,31.8975
2019-05-17T09:21:51.918Z,32.7039
2019-05-17T09:22:00.327Z,33.5424
2019-05-17T09:22:10.536Z,33.9670
2019-05-17T09:22:19.806Z,34.4797
2019-05-17T09:22:30.419Z,35.2461
2019-05-17T09:22:39.589Z,35.4009
2019-05-17T09:22:48.303Z,35.9857
2019-05-17T09:22:56.715Z,36.3809
2019-05-17T09:23:05.144Z,36.5652
2019-05-17T09:23:13.558Z,36.7227
2019-05-17T09:23:21.960Z,37.1473
2019-05-17T09:23:30.673Z,36.3115
2019-05-17T09:23:39.692Z,34.4209
2019-05-17T09:23:50.224Z,33.4569
2019-05-17T09:23:59.751Z,32.6211
2019-05-17T09:24:10.253Z,31.7800
2019-05-17T09:24:35.339Z,29.9668
2019-05-17T09:24:43.742Z,29.6410
2019-05-17T09:24:52.149Z,29.5716
2019-05-17T09:25:00.562Z,29.5129
2019-05-17T09:25:13.587Z,29.6571
2019-05-17T09:25:23.382Z,29.6998
2019-05-17T09:25:31.802Z,29.6571
2019-05-17T09:25:40.263Z,29.6010
2019-05-17T09:25:50.073Z,29.5129
2019-05-17T09:25:59.522Z,29.4007
2019-05-17T09:26:10.059Z,29.3019
2019-05-17T09:26:19.978Z,29.1310
2019-05-17T09:26:29.412Z,28.9895
2019-05-17T09:26:39.949Z,28.8479
2019-05-17T09:26:49.217Z,28.7064
2019-05-17T09:26:59.857Z,28.5809
2019-05-17T09:39:15.463Z,19.0585
2019-05-17T09:39:23.883Z,19.1280
2019-05-17T09:39:32.360Z,19.1840
2019-05-17T09:39:40.774Z,19.3015
2019-05-17T09:39:49.323Z,19.3843
2019-05-17T09:39:59.700Z,19.4404
2019-05-17T09:40:09.359Z,19.4991
2019-05-17T09:40:20.027Z,19.5819
2019-05-17T09:40:29.270Z,19.6380
2019-05-17T09:40:40.130Z,19.7101
2019-05-17T09:40:50.549Z,19.7795
2019-05-17T09:41:00.014Z,20.5299
2019-05-17T09:41:09.364Z,11.7151
2019-05-17T09:41:19.886Z,5.7603
2019-05-17T09:41:29.319Z,3.8937
2019-05-17T09:41:39.752Z,3.2155
2019-05-17T09:41:50.299Z,2.7214
2019-05-17T09:41:59.597Z,2.5505
2019-05-17T09:42:10.191Z,2.4224
2019-05-17T09:42:20.945Z,2.2675
2019-05-17T09:42:30.088Z,2.1553
2019-05-17T09:42:41.147Z,2.0138
2019-05-17T09:42:50.056Z,1.8563
2019-05-17T09:43:00.523Z,1.7441
2019-05-17T09:43:10.213Z,1.6159
2019-05-17T09:43:20.524Z,1.5171
2019-05-17T09:43:29.647Z,1.5038
2019-05-17T09:43:40.226Z,1.4183
2019-05-17T09:43:49.686Z,1.3783
2019-05-17T09:44:09.600Z,1.3222
2019-05-17T09:44:16.192Z,1.2074
2019-05-17T09:44:25.114Z,1.1246
2019-05-17T09:44:33.621Z,1.0658
2019-05-17T09:44:42.643Z,1.0498
2019-05-17T09:44:51.120Z,0.9937
2019-05-17T09:45:00.390Z,0.9804
2019-05-17T09:45:09.654Z,0.9377
2019-05-17T09:45:20.206Z,0.9243
2019-05-17T09:45:30.606Z,0.8949
2019-05-17T09:45:40.396Z,0.9083
2019-05-17T09:45:50.667Z,0.8389
2019-05-17T09:46:01.689Z,0.8122
2019-05-17T09:46:10.807Z,0.7961
2019-05-17T09:46:19.786Z,0.7401
2019-05-17T09:46:30.283Z,0.7267
2019-05-17T09:46:39.565Z,0.7134
